Osage, Wyoming
Current Conditions -  °F | °C
As of 5:15 AM on Sunday 23 Nov 2014 (Local Time) from KECS Reporting Station
Clear Clear  
Wind Chill: 18°   Ceiling: Unl
Heat Index: 28°   Visibility: 10mi
Dew Point: 19°   Wind: 12mph
Humidity: 69%   Direction: 350°N
Pressure: 29.71"   Gusts: NA
Location:  43.98°N, 104.42°W
Report Text: KECS 231215Z AUTO 35010KT 10SM CLR M02/M07 A2971 RMK AO2
Loading
Personal Weather Stations






























Interactive Weather Map New forecast layout! Learn more

10-Day Weather Forecast

Advertisements
Track Severe Weather on mobile